createdAt,value
2022-08-18T00:01:07.953Z,27.65
2022-08-18T00:03:56.329Z,31.75
2022-08-18T00:06:28.433Z,29.77
2022-08-18T00:08:58.019Z,29.67
2022-08-18T00:11:26.271Z,27.75
2022-08-18T00:13:54.403Z,26.55
2022-08-18T00:16:22.612Z,31.33
2022-08-18T00:18:52.104Z,27.83
2022-08-18T00:21:20.792Z,30.42
2022-08-18T00:23:49.014Z,30.95
2022-08-18T00:26:17.100Z,28.58
2022-08-18T00:28:45.162Z,25.77
2022-08-18T00:31:13.312Z,25.38
2022-08-18T00:33:43.113Z,29.45
2022-08-18T00:36:13.101Z,25.63
2022-08-18T00:38:41.826Z,27.52
2022-08-18T00:41:10.018Z,29.52
2022-08-18T00:43:43.382Z,29.08
2022-08-18T00:46:15.560Z,33.10
2022-08-18T00:48:48.423Z,30.70
2022-08-18T00:51:23.767Z,29.65
2022-08-18T00:54:02.613Z,30.45
2022-08-18T00:56:35.100Z,31.50
2022-08-18T00:59:07.922Z,30.98
2022-08-18T01:01:38.042Z,29.92
2022-08-18T01:04:11.443Z,26.20
2022-08-18T01:06:45.630Z,32.95
2022-08-18T01:09:14.017Z,31.90
2022-08-18T01:11:42.153Z,26.27
2022-08-18T01:14:12.104Z,28.40
2022-08-18T01:16:58.032Z,32.13
2022-08-18T01:19:46.544Z,30.17
2022-08-18T01:22:23.636Z,31.55
2022-08-18T01:25:13.331Z,32.97
2022-08-18T01:27:42.723Z,34.75
2022-08-18T01:30:14.408Z,30.42
2022-08-18T01:32:44.335Z,32.75
2022-08-18T01:35:14.744Z,27.23
2022-08-18T01:37:43.029Z,30.05
2022-08-18T01:41:24.066Z,28.77
2022-08-18T01:43:05.418Z,31.70
2022-08-18T01:45:34.662Z,32.60
2022-08-18T01:48:04.784Z,27.65
2022-08-18T01:50:34.345Z,29.65
2022-08-18T01:53:04.112Z,27.70
2022-08-18T01:55:33.851Z,27.92
2022-08-18T01:58:01.915Z,25.85
2022-08-18T02:00:31.497Z,28.88
2022-08-18T02:03:01.981Z,30.27
2022-08-18T02:05:35.216Z,31.48
2022-08-18T02:08:04.445Z,26.95
2022-08-18T02:10:34.310Z,30.85
2022-08-18T02:13:03.414Z,30.80
2022-08-18T02:15:31.594Z,30.95
2022-08-18T02:17:59.762Z,29.77
2022-08-18T02:20:27.849Z,26.50
2022-08-18T02:22:56.040Z,29.42
2022-08-18T02:25:24.270Z,24.20
2022-08-18T02:27:53.886Z,28.00
2022-08-18T02:30:22.745Z,23.83
2022-08-18T02:32:50.795Z,32.35
2022-08-18T02:35:19.014Z,28.35
2022-08-18T02:37:48.411Z,29.38
2022-08-18T02:40:17.687Z,31.23
2022-08-18T02:42:46.505Z,29.83
2022-08-18T02:45:16.249Z,26.88
2022-08-18T02:47:45.043Z,30.20
2022-08-18T02:50:14.172Z,31.92
2022-08-18T02:52:42.285Z,28.13
2022-08-18T02:55:11.678Z,35.70
2022-08-18T02:57:43.796Z,25.17
2022-08-18T03:00:14.947Z,29.58
2022-08-18T03:02:47.184Z,29.77
2022-08-18T03:05:15.426Z,25.83
2022-08-18T03:07:43.698Z,29.50
2022-08-18T03:10:33.243Z,25.77
2022-08-18T03:13:01.972Z,27.92
2022-08-18T03:15:30.112Z,32.80
2022-08-18T03:17:59.773Z,27.42
2022-08-18T03:20:30.312Z,27.08
2022-08-18T03:23:05.811Z,27.25
2022-08-18T03:25:38.514Z,26.33
2022-08-18T03:28:08.470Z,25.08
2022-08-18T03:30:36.893Z,26.38
2022-08-18T03:33:06.443Z,31.27
2022-08-18T03:35:36.340Z,29.88
2022-08-18T03:38:04.972Z,26.67
2022-08-18T03:40:33.123Z,28.33
2022-08-18T03:43:50.034Z,33.55
2022-08-18T03:45:55.218Z,26.00
2022-08-18T03:48:25.366Z,26.20
2022-08-18T03:50:53.564Z,29.02
2022-08-18T03:53:21.736Z,32.63
2022-08-18T03:55:49.884Z,29.55
2022-08-18T03:58:18.162Z,29.73
2022-08-18T04:00:46.222Z,30.20
2022-08-18T04:03:14.375Z,30.27
2022-08-18T04:05:43.918Z,31.40
2022-08-18T04:08:13.473Z,34.13
2022-08-18T04:10:41.743Z,33.58
2022-08-18T04:13:09.863Z,33.70
2022-08-18T04:15:38.690Z,29.38
2022-08-18T04:18:08.770Z,30.92
2022-08-18T04:20:37.263Z,32.92
2022-08-18T04:23:06.792Z,35.60
2022-08-18T04:25:35.196Z,28.95
2022-08-18T04:28:03.974Z,29.90
2022-08-18T04:30:32.526Z,29.10
2022-08-18T04:33:06.432Z,30.73
2022-08-18T04:35:34.570Z,29.48
2022-08-18T04:38:02.719Z,35.63
2022-08-18T04:40:34.024Z,31.63
2022-08-18T04:43:02.790Z,25.85
2022-08-18T04:45:31.564Z,29.63
2022-08-18T04:47:59.620Z,35.47
2022-08-18T04:50:27.742Z,28.60
2022-08-18T04:53:13.065Z,27.83
2022-08-18T04:55:48.378Z,24.05
2022-08-18T04:58:18.785Z,29.00
2022-08-18T05:00:47.166Z,30.52
2022-08-18T05:03:15.648Z,28.65
2022-08-18T05:05:43.771Z,33.13
2022-08-18T05:08:11.827Z,32.88
2022-08-18T05:10:40.485Z,29.30
2022-08-18T05:13:10.050Z,38.03
2022-08-18T05:16:07.083Z,38.00
2022-08-18T05:18:28.525Z,36.60
2022-08-18T05:20:57.929Z,35.75
2022-08-18T05:23:29.619Z,33.67
2022-08-18T05:26:02.240Z,29.67
2022-08-18T05:28:31.959Z,34.33
2022-08-18T05:31:00.337Z,34.05
2022-08-18T05:33:28.866Z,38.33
2022-08-18T05:36:04.653Z,33.40
2022-08-18T05:38:46.548Z,31.52
2022-08-18T05:41:21.745Z,37.22
2022-08-18T05:43:52.690Z,34.92
2022-08-18T05:46:25.422Z,33.33
2022-08-18T05:48:53.554Z,37.75
2022-08-18T05:51:28.679Z,34.97
2022-08-18T05:54:25.842Z,33.72
2022-08-18T05:56:58.134Z,33.50
2022-08-18T05:59:32.204Z,41.90
2022-08-18T06:02:05.533Z,39.55
2022-08-18T06:04:44.588Z,38.67
2022-08-18T06:07:16.933Z,34.03
2022-08-18T06:09:50.579Z,37.75
2022-08-18T06:12:25.736Z,36.78
2022-08-18T06:15:01.274Z,33.70
2022-08-18T06:17:53.763Z,39.97
2022-08-18T06:20:31.076Z,36.42
2022-08-18T06:23:11.896Z,37.40
2022-08-18T06:25:53.846Z,39.25
2022-08-18T06:28:21.991Z,34.05
2022-08-18T06:31:04.052Z,37.38
2022-08-18T06:33:50.360Z,33.60
2022-08-18T06:36:23.658Z,35.42
2022-08-18T06:39:12.854Z,36.72
2022-08-18T06:41:44.618Z,39.47
2022-08-18T06:44:14.590Z,29.90
2022-08-18T06:46:49.125Z,28.45
2022-08-18T06:49:38.991Z,33.67
2022-08-18T06:52:29.297Z,31.83
2022-08-18T06:54:59.851Z,34.60
2022-08-18T06:57:32.848Z,26.02
2022-08-18T07:00:07.471Z,30.52
2022-08-18T07:02:49.888Z,28.10
2022-08-18T07:05:22.282Z,28.65
2022-08-18T07:08:12.636Z,29.70
2022-08-18T07:10:43.626Z,22.65
2022-08-18T07:13:21.687Z,27.10
2022-08-18T07:15:50.743Z,26.73
2022-08-18T07:18:26.546Z,24.13
2022-08-18T07:20:58.314Z,25.30
2022-08-18T07:23:30.220Z,21.88
2022-08-18T07:26:06.550Z,21.58
2022-08-18T07:28:37.830Z,22.75
2022-08-18T07:31:21.451Z,24.02
2022-08-18T07:33:56.778Z,22.67
2022-08-18T07:36:29.291Z,25.13
2022-08-18T07:39:03.751Z,27.45
2022-08-18T07:41:38.709Z,28.73
2022-08-18T07:44:17.417Z,28.40
2022-08-18T07:46:57.358Z,19.85
2022-08-18T07:49:33.511Z,15.10
2022-08-18T07:52:07.117Z,14.98
2022-08-18T07:54:59.623Z,18.92
2022-08-18T07:57:52.888Z,21.35
2022-08-18T08:00:41.456Z,15.40
2022-08-18T08:03:26.986Z,16.17
2022-08-18T08:06:03.032Z,15.23
2022-08-18T08:08:41.873Z,18.10
2022-08-18T08:11:21.927Z,15.70
2022-08-18T08:14:11.440Z,18.83
2022-08-18T08:16:48.296Z,17.45
2022-08-18T08:19:59.551Z,14.05
2022-08-18T08:22:32.447Z,16.73
2022-08-18T08:25:22.412Z,15.10
2022-08-18T08:28:08.305Z,13.05
2022-08-18T08:30:44.057Z,15.98
2022-08-18T08:33:22.207Z,18.00
2022-08-18T08:35:54.980Z,14.65
2022-08-18T08:38:42.441Z,13.75
2022-08-18T08:41:16.589Z,15.65
2022-08-18T08:43:49.092Z,17.67
2022-08-18T08:46:21.163Z,14.95
2022-08-18T08:48:56.065Z,13.15
2022-08-18T08:51:34.945Z,16.15
2022-08-18T08:54:11.416Z,20.52
2022-08-18T08:56:46.036Z,16.92
2022-08-18T08:59:16.478Z,18.15
2022-08-18T09:01:51.527Z,16.25
2022-08-18T09:04:36.393Z,15.80
2022-08-18T09:07:17.484Z,12.63
2022-08-18T09:10:17.179Z,15.27
2022-08-18T09:13:00.529Z,16.27
2022-08-18T09:15:57.116Z,21.55
2022-08-18T09:18:51.809Z,16.42
2022-08-18T09:21:41.689Z,12.95
2022-08-18T09:24:18.754Z,17.02
2022-08-18T09:26:54.021Z,17.13
2022-08-18T09:29:27.103Z,13.50
2022-08-18T09:32:32.644Z,19.38
2022-08-18T09:35:13.086Z,17.35
2022-08-18T09:38:08.613Z,16.83
2022-08-18T09:41:03.759Z,15.75
2022-08-18T09:43:39.339Z,17.98
2022-08-18T09:46:08.875Z,15.38
2022-08-18T09:48:43.668Z,17.70
2022-08-18T09:51:34.829Z,15.90
2022-08-18T09:54:13.502Z,18.90
2022-08-18T09:57:08.710Z,16.13
2022-08-18T10:00:22.418Z,19.63
2022-08-18T10:03:25.869Z,13.13
2022-08-18T10:06:26.956Z,18.58
2022-08-18T10:09:27.387Z,14.05
2022-08-18T10:12:27.313Z,18.90
2022-08-18T10:15:33.052Z,18.15
2022-08-18T10:18:22.718Z,16.67
2022-08-18T10:20:59.941Z,16.15
2022-08-18T10:24:02.830Z,15.00
2022-08-18T10:27:13.460Z,13.27
2022-08-18T10:30:00.315Z,16.40
2022-08-18T10:32:52.248Z,16.25
2022-08-18T10:35:55.019Z,15.48
2022-08-18T10:38:53.581Z,15.40
2022-08-18T10:41:27.252Z,12.40
2022-08-18T10:44:01.480Z,16.10
2022-08-18T10:46:36.998Z,15.75
2022-08-18T10:49:21.517Z,12.27
2022-08-18T10:52:29.406Z,14.85
2022-08-18T10:55:17.924Z,11.82
2022-08-18T10:58:09.116Z,16.33
2022-08-18T11:00:48.541Z,15.00
2022-08-18T11:03:52.218Z,12.13
2022-08-18T11:06:26.276Z,16.30
2022-08-18T11:08:57.889Z,14.35
2022-08-18T11:11:33.153Z,16.65
2022-08-18T11:14:16.104Z,16.55
2022-08-18T11:16:54.065Z,11.85
2022-08-18T11:19:24.542Z,10.52
2022-08-18T11:21:54.867Z,11.88
2022-08-18T11:24:25.568Z,11.65
2022-08-18T11:26:55.887Z,14.50
2022-08-18T11:29:33.412Z,13.52
2022-08-18T11:32:09.176Z,11.48
2022-08-18T11:34:45.734Z,12.40
2022-08-18T11:37:48.591Z,13.55
2022-08-18T11:43:41.539Z,11.27
2022-08-18T11:46:16.496Z,11.70
2022-08-18T11:48:53.761Z,12.05
2022-08-18T11:51:25.264Z,9.73
2022-08-18T11:53:59.562Z,13.13
2022-08-18T11:59:52.386Z,12.40
2022-08-18T12:02:26.060Z,10.57
2022-08-18T12:07:57.489Z,11.95
2022-08-18T12:10:29.735Z,11.60
2022-08-18T12:13:00.657Z,13.18
2022-08-18T12:15:43.871Z,13.23
2022-08-18T12:18:25.922Z,10.00
2022-08-18T12:20:57.560Z,12.40
2022-08-18T12:23:26.136Z,12.07
2022-08-18T12:25:55.734Z,7.85
2022-08-18T12:28:28.348Z,6.90
2022-08-18T12:30:57.507Z,8.52
2022-08-18T12:36:15.731Z,8.43
2022-08-18T12:41:35.796Z,7.15
2022-08-18T12:44:04.223Z,10.60
2022-08-18T12:46:38.245Z,10.55
2022-08-18T12:49:18.307Z,9.13
2022-08-18T12:51:50.404Z,9.23
2022-08-18T12:54:20.060Z,7.63
2022-08-18T12:56:53.123Z,7.97
2022-08-18T12:59:21.461Z,8.60
2022-08-18T13:04:41.495Z,13.32
2022-08-18T13:07:11.985Z,8.60
2022-08-18T13:09:53.970Z,7.70
2022-08-18T13:12:25.555Z,9.50
2022-08-18T13:14:54.940Z,10.20
2022-08-18T13:17:32.747Z,12.25
2022-08-18T13:20:05.110Z,8.85
2022-08-18T13:22:33.672Z,6.60
2022-08-18T13:25:03.994Z,11.45
2022-08-18T13:27:37.381Z,11.65
2022-08-18T13:30:29.830Z,7.82
2022-08-18T13:32:58.803Z,10.52
2022-08-18T13:35:30.010Z,7.85
2022-08-18T13:38:14.271Z,10.85
2022-08-18T13:40:48.620Z,10.63
2022-08-18T13:43:21.086Z,8.45
2022-08-18T13:45:53.334Z,9.45
2022-08-18T13:48:25.752Z,10.52
2022-08-18T13:50:56.282Z,8.98
2022-08-18T13:53:27.153Z,10.02
2022-08-18T13:55:58.832Z,9.73
2022-08-18T13:58:29.821Z,6.70
2022-08-18T14:01:22.399Z,9.70
2022-08-18T14:03:48.234Z,8.70
2022-08-18T14:06:22.509Z,11.00
2022-08-18T14:08:52.414Z,11.40
2022-08-18T14:11:21.978Z,11.25
2022-08-18T14:13:51.370Z,10.00
2022-08-18T14:16:21.239Z,6.75
2022-08-18T14:19:10.506Z,9.35
2022-08-18T14:22:05.772Z,9.15
2022-08-18T14:24:53.660Z,10.93
2022-08-18T14:27:27.342Z,11.70
2022-08-18T14:30:07.454Z,11.95
2022-08-18T14:32:36.577Z,11.43
2022-08-18T14:35:34.517Z,8.65
2022-08-18T14:38:07.142Z,7.35
2022-08-18T14:40:41.795Z,9.63
2022-08-18T14:43:11.561Z,10.27
2022-08-18T14:57:09.348Z,7.53
2022-08-18T14:59:38.050Z,10.60
2022-08-18T15:02:07.634Z,9.02
2022-08-18T15:04:55.943Z,11.98
2022-08-18T15:07:24.622Z,9.57
2022-08-18T15:10:16.103Z,6.85
2022-08-18T15:12:43.552Z,10.77
2022-08-18T15:15:15.937Z,8.00
2022-08-18T15:17:50.247Z,7.38
2022-08-18T15:20:23.779Z,6.47
2022-08-18T15:23:09.701Z,9.73
2022-08-18T15:25:44.911Z,9.15
2022-08-18T15:28:17.546Z,12.18
2022-08-18T15:30:51.198Z,8.23
2022-08-18T15:33:24.283Z,7.85
2022-08-18T15:35:53.661Z,9.15
2022-08-18T15:38:24.687Z,8.85
2022-08-18T15:40:58.135Z,8.18
2022-08-18T15:43:31.319Z,6.55
2022-08-18T15:45:59.709Z,8.88
2022-08-18T15:48:29.512Z,9.05
2022-08-18T15:50:57.809Z,6.93
2022-08-18T15:53:44.521Z,11.10
2022-08-18T15:56:21.019Z,12.82
2022-08-18T15:58:51.233Z,12.52
2022-08-18T16:01:30.180Z,10.00
2022-08-18T16:04:01.318Z,10.43
2022-08-18T16:06:32.282Z,10.32
2022-08-18T16:09:01.669Z,13.60
2022-08-18T16:11:30.649Z,9.52
2022-08-18T16:14:00.273Z,10.48
2022-08-18T16:16:29.200Z,11.73
2022-08-18T16:19:05.491Z,9.45
2022-08-18T16:21:33.669Z,9.60
2022-08-18T16:24:01.799Z,9.52
2022-08-18T16:26:30.242Z,13.48
2022-08-18T16:29:01.780Z,13.00
2022-08-18T16:31:30.479Z,11.73
2022-08-18T16:33:59.372Z,15.18
2022-08-18T16:36:27.518Z,8.68
2022-08-18T16:38:58.321Z,8.38
2022-08-18T16:41:27.636Z,9.93
2022-08-18T16:43:56.269Z,15.18
2022-08-18T16:46:27.762Z,14.43
2022-08-18T16:48:56.827Z,8.50
2022-08-18T16:51:29.570Z,14.90
2022-08-18T16:53:58.699Z,12.15
2022-08-18T16:56:28.908Z,8.80
2022-08-18T16:59:15.296Z,9.07
2022-08-18T17:02:02.153Z,11.32
2022-08-18T17:04:33.702Z,12.52
2022-08-18T17:07:03.274Z,12.80
2022-08-18T17:09:31.424Z,12.30
2022-08-18T17:11:59.589Z,15.73
2022-08-18T17:14:29.787Z,15.70
2022-08-18T17:17:00.620Z,13.57
2022-08-18T17:19:31.241Z,16.60
2022-08-18T17:21:59.294Z,11.73
2022-08-18T17:24:31.166Z,13.82
2022-08-18T17:27:25.542Z,15.15
2022-08-18T17:30:01.291Z,14.20
2022-08-18T17:35:15.573Z,12.70
2022-08-18T17:37:53.056Z,12.20
2022-08-18T17:40:28.651Z,11.25
2022-08-18T17:42:59.920Z,12.43
2022-08-18T17:45:32.030Z,12.70
2022-08-18T17:48:08.247Z,14.60
2022-08-18T17:50:57.230Z,13.07
2022-08-18T17:53:26.219Z,13.75
2022-08-18T17:56:00.036Z,16.95
2022-08-18T17:58:39.271Z,12.32
2022-08-18T18:01:08.030Z,18.13
2022-08-18T18:03:38.068Z,16.88
2022-08-18T18:06:12.506Z,16.67
2022-08-18T18:08:59.228Z,15.55
2022-08-18T18:11:32.076Z,13.68
2022-08-18T18:14:01.300Z,17.45
2022-08-18T18:16:35.008Z,18.15
2022-08-18T18:19:06.866Z,15.27
2022-08-18T18:22:00.327Z,17.20
2022-08-18T18:24:32.524Z,14.68
2022-08-18T18:27:00.872Z,18.17
2022-08-18T18:29:34.598Z,13.65
2022-08-18T18:32:07.379Z,18.45
2022-08-18T18:34:39.757Z,15.15
2022-08-18T18:37:25.459Z,12.07
2022-08-18T18:39:58.731Z,14.70
2022-08-18T18:42:28.638Z,14.32
2022-08-18T18:44:59.132Z,15.38
2022-08-18T18:47:56.128Z,14.23
2022-08-18T18:50:33.707Z,13.88
2022-08-18T18:53:12.381Z,13.93
2022-08-18T18:55:48.020Z,16.65
2022-08-18T18:58:27.394Z,17.05
2022-08-18T19:00:59.531Z,17.88
2022-08-18T19:03:34.121Z,17.45
2022-08-18T19:06:14.428Z,15.38
2022-08-18T19:08:53.930Z,16.67
2022-08-18T19:11:29.633Z,15.52
2022-08-18T19:14:02.934Z,14.75
2022-08-18T19:16:42.425Z,18.58
2022-08-18T19:19:35.513Z,20.23
2022-08-18T19:22:14.087Z,23.83
2022-08-18T19:24:52.129Z,20.20
2022-08-18T19:27:34.410Z,18.35
2022-08-18T19:30:06.688Z,18.60
2022-08-18T19:32:40.926Z,22.13
2022-08-18T19:35:11.969Z,24.95
2022-08-18T19:38:10.806Z,16.35
2022-08-18T19:40:47.763Z,21.35
2022-08-18T19:43:24.962Z,22.35
2022-08-18T19:45:59.611Z,26.30
2022-08-18T19:48:32.853Z,32.63
2022-08-18T19:51:07.836Z,20.85
2022-08-18T19:54:11.341Z,24.23
2022-08-18T19:56:52.534Z,21.60
2022-08-18T19:59:39.800Z,22.73
2022-08-18T20:02:26.798Z,22.60
2022-08-18T20:05:08.334Z,16.88
2022-08-18T20:07:55.992Z,18.45
2022-08-18T20:10:51.672Z,20.80
2022-08-18T20:13:33.328Z,18.27
2022-08-18T20:16:43.773Z,16.83
2022-08-18T20:19:42.419Z,19.77
2022-08-18T20:22:15.992Z,15.60
2022-08-18T20:24:52.239Z,18.02
2022-08-18T20:27:36.169Z,16.30
2022-08-18T20:30:26.766Z,15.77
2022-08-18T20:33:14.417Z,19.85
2022-08-18T20:35:47.293Z,21.90
2022-08-18T20:38:21.538Z,21.05
2022-08-18T20:40:52.272Z,18.48
2022-08-18T20:43:31.897Z,18.23
2022-08-18T20:46:19.944Z,16.33
2022-08-18T20:49:09.306Z,22.05
2022-08-18T20:51:51.978Z,19.70
2022-08-18T20:54:32.896Z,16.85
2022-08-18T20:57:04.247Z,18.05
2022-08-18T20:59:36.893Z,16.92
2022-08-18T21:02:07.967Z,19.08
2022-08-18T21:04:52.082Z,20.42
2022-08-18T21:07:37.407Z,16.95
2022-08-18T21:10:13.599Z,21.25
2022-08-18T21:12:51.963Z,26.25
2022-08-18T21:15:24.330Z,22.95
2022-08-18T21:17:59.089Z,19.30
2022-08-18T21:20:29.237Z,25.63
2022-08-18T21:23:06.597Z,23.50
2022-08-18T21:25:35.386Z,20.13
2022-08-18T21:28:07.068Z,24.88
2022-08-18T21:30:37.472Z,21.52
2022-08-18T21:33:20.233Z,18.50
2022-08-18T21:35:48.479Z,22.73
2022-08-18T21:38:25.337Z,25.27
2022-08-18T21:40:58.136Z,31.27
2022-08-18T21:43:48.954Z,19.48
2022-08-18T21:46:26.071Z,23.27
2022-08-18T21:48:57.110Z,22.02
2022-08-18T21:51:27.424Z,17.50
2022-08-18T21:53:56.373Z,22.17
2022-08-18T21:56:27.977Z,17.48
2022-08-18T21:59:09.648Z,21.05
2022-08-18T22:01:48.581Z,20.73
2022-08-18T22:04:29.663Z,18.45
2022-08-18T22:07:00.431Z,18.67
2022-08-18T22:09:47.567Z,20.63
2022-08-18T22:12:44.187Z,18.15
2022-08-18T22:15:16.953Z,20.55
2022-08-18T22:17:53.857Z,26.73
2022-08-18T22:20:44.222Z,19.10
2022-08-18T22:23:42.742Z,19.67
2022-08-18T22:26:13.923Z,23.42
2022-08-18T22:28:55.074Z,19.70
2022-08-18T22:31:24.917Z,20.27
2022-08-18T22:33:57.379Z,20.33
2022-08-18T22:36:29.300Z,16.90
2022-08-18T22:38:57.613Z,15.57
2022-08-18T22:41:26.131Z,17.35
2022-08-18T22:43:55.487Z,19.67
2022-08-18T22:46:25.175Z,19.40
2022-08-18T22:48:55.007Z,16.90
2022-08-18T22:51:26.443Z,20.25
2022-08-18T22:53:54.794Z,17.60
2022-08-18T22:56:33.956Z,20.15
2022-08-18T22:59:13.647Z,16.73
2022-08-18T23:01:46.129Z,20.60
2022-08-18T23:04:16.965Z,22.38
2022-08-18T23:06:52.468Z,23.40
2022-08-18T23:09:23.542Z,19.77
2022-08-18T23:11:53.272Z,20.70
2022-08-18T23:14:22.364Z,20.48
2022-08-18T23:16:50.910Z,21.50
2022-08-18T23:19:21.954Z,21.40
2022-08-18T23:21:51.738Z,20.42
2022-08-18T23:24:21.150Z,18.40
2022-08-18T23:26:49.855Z,20.27
2022-08-18T23:29:18.961Z,20.95
2022-08-18T23:31:48.421Z,16.38
2022-08-18T23:34:18.690Z,21.17
2022-08-18T23:36:54.776Z,20.40
2022-08-18T23:39:23.977Z,21.70
2022-08-18T23:41:52.818Z,19.27
2022-08-18T23:44:22.547Z,19.50
2022-08-18T23:46:55.701Z,18.55
2022-08-18T23:49:23.771Z,20.60
2022-08-18T23:51:56.068Z,19.52
2022-08-18T23:54:27.017Z,19.73
2022-08-18T23:56:55.217Z,21.67
2022-08-18T23:59:25.304Z,20.20
